createdAt,value
2023-06-22T00:01:46.356Z,5.1
2023-06-22T00:04:48.224Z,4.8
2023-06-22T00:07:50.218Z,5.6
2023-06-22T00:10:52.172Z,4.7
2023-06-22T00:13:54.132Z,5.7
2023-06-22T00:16:56.253Z,5
2023-06-22T00:19:58.114Z,5
2023-06-22T00:23:00.094Z,5
2023-06-22T00:26:02.108Z,5.1
2023-06-22T00:29:04.045Z,5
2023-06-22T00:32:06.000Z,4.5
2023-06-22T00:35:07.995Z,4.3
2023-06-22T00:38:10.151Z,4.5
2023-06-22T00:41:11.883Z,4.4
2023-06-22T00:44:13.879Z,4.4
2023-06-22T00:47:15.832Z,4.2
2023-06-22T00:50:17.867Z,4.2
2023-06-22T00:53:19.839Z,4.1
2023-06-22T00:56:21.786Z,4
2023-06-22T00:59:23.750Z,4
2023-06-22T01:02:25.810Z,4
2023-06-22T01:05:27.739Z,4.4
2023-06-22T01:08:29.678Z,4.9
2023-06-22T01:11:31.640Z,4.9
2023-06-22T01:14:33.593Z,5
2023-06-22T01:17:35.607Z,5.3
2023-06-22T01:20:37.558Z,6.2
2023-06-22T01:23:39.540Z,6
2023-06-22T01:26:41.487Z,6.3
2023-06-22T01:29:43.452Z,6.1
2023-06-22T01:32:45.427Z,6.3
2023-06-22T01:35:47.412Z,6.5
2023-06-22T01:38:49.343Z,6.7
2023-06-22T01:41:51.295Z,6.5
2023-06-22T01:44:53.268Z,5.8
2023-06-22T01:47:55.323Z,6.3
2023-06-22T01:50:57.267Z,6.4
2023-06-22T01:53:59.192Z,6.2
2023-06-22T01:57:01.130Z,6.6
2023-06-22T02:00:03.146Z,7.1
2023-06-22T02:03:05.127Z,7
2023-06-22T02:06:07.031Z,5.9
2023-06-22T02:09:09.027Z,6.6
2023-06-22T02:12:11.038Z,7.5
2023-06-22T02:15:13.006Z,7
2023-06-22T02:18:14.977Z,7.1
2023-06-22T02:21:16.982Z,6.6
2023-06-22T02:24:18.950Z,7.7
2023-06-22T02:27:20.924Z,7.6
2023-06-22T02:30:22.869Z,7.3
2023-06-22T02:33:24.858Z,6.6
2023-06-22T02:36:26.811Z,7.8
2023-06-22T02:39:33.760Z,6.8
2023-06-22T02:42:30.731Z,6.3
2023-06-22T02:45:32.710Z,7
2023-06-22T02:48:34.656Z,6.9
2023-06-22T02:51:36.706Z,6.6
2023-06-22T02:54:38.689Z,7.1
2023-06-22T02:57:40.661Z,7
2023-06-22T03:00:42.676Z,6.7
2023-06-22T03:03:44.672Z,6.8
2023-06-22T03:06:46.564Z,6.7
2023-06-22T03:09:48.528Z,6.8
2023-06-22T03:12:50.524Z,6.3
2023-06-22T03:15:52.451Z,6.8
2023-06-22T03:18:54.422Z,7.5
2023-06-22T03:21:56.443Z,7.3
2023-06-22T03:24:58.390Z,7
2023-06-22T03:28:00.467Z,7
2023-06-22T03:31:02.447Z,7.1
2023-06-22T03:34:04.410Z,7.7
2023-06-22T03:37:06.390Z,6.5
2023-06-22T03:40:08.357Z,7.6
2023-06-22T03:43:10.499Z,6.7
2023-06-22T03:46:12.334Z,7
2023-06-22T03:49:14.275Z,6.3
2023-06-22T03:52:16.216Z,6.9
2023-06-22T03:55:18.216Z,7.2
2023-06-22T03:58:20.373Z,7.5
2023-06-22T04:01:22.129Z,6.3
2023-06-22T04:04:24.217Z,6.4
2023-06-22T04:07:26.049Z,5.8
2023-06-22T04:10:28.198Z,6.3
2023-06-22T04:13:29.998Z,6.9
2023-06-22T04:16:31.976Z,6.5
2023-06-22T04:19:33.945Z,7.9
2023-06-22T04:22:35.878Z,7.4
2023-06-22T04:25:37.876Z,6.7
2023-06-22T04:28:39.838Z,6.9
2023-06-22T04:31:41.801Z,7.3
2023-06-22T04:34:43.745Z,7.1
2023-06-22T04:37:45.723Z,6.2
2023-06-22T04:40:47.688Z,6.9
2023-06-22T04:43:49.647Z,7.2
2023-06-22T04:46:51.618Z,6.6
2023-06-22T04:49:53.603Z,6.4
2023-06-22T04:52:55.603Z,6.2
2023-06-22T04:55:57.534Z,7.6
2023-06-22T04:58:59.542Z,7.8
2023-06-22T05:02:01.579Z,6.7
2023-06-22T05:05:03.698Z,6.9
2023-06-22T05:08:05.514Z,6.3
2023-06-22T05:11:07.707Z,7.7
2023-06-22T05:14:09.641Z,7.2
2023-06-22T05:17:12.328Z,6.7
2023-06-22T05:20:13.545Z,6.3
2023-06-22T05:23:15.549Z,7.2
2023-06-22T05:26:17.503Z,7
2023-06-22T05:29:29.830Z,7
2023-06-22T05:32:21.834Z,6.2
2023-06-22T05:35:23.821Z,7.2
2023-06-22T05:38:25.818Z,7.7
2023-06-22T05:41:27.790Z,6.7
2023-06-22T05:44:29.772Z,6.9
2023-06-22T05:47:31.788Z,6.8
2023-06-22T05:50:34.026Z,6.9
2023-06-22T05:53:35.720Z,5.8
2023-06-22T05:56:37.749Z,6.7
2023-06-22T05:59:39.642Z,5.3
2023-06-22T06:02:41.616Z,7.1
2023-06-22T06:05:43.594Z,8
2023-06-22T06:08:45.597Z,6.8
2023-06-22T06:11:47.584Z,7.2
2023-06-22T06:14:49.562Z,6.7
2023-06-22T06:17:51.593Z,7.2
2023-06-22T06:20:53.546Z,7.2
2023-06-22T06:23:55.561Z,7.6
2023-06-22T06:26:57.525Z,7.8
2023-06-22T06:29:59.533Z,7.1
2023-06-22T06:33:01.572Z,6.9
2023-06-22T06:36:03.526Z,7.4
2023-06-22T06:39:05.602Z,6.9
2023-06-22T06:42:07.599Z,7.7
2023-06-22T06:45:09.558Z,7.3
2023-06-22T06:48:11.650Z,7.1
2023-06-22T06:51:13.542Z,7.3
2023-06-22T06:54:15.569Z,6.7
2023-06-22T06:57:17.582Z,6.8
2023-06-22T07:00:19.573Z,7.8
2023-06-22T07:03:21.507Z,6.9
2023-06-22T07:06:23.462Z,6.2
2023-06-22T07:09:25.499Z,6
2023-06-22T07:12:27.394Z,6.2
2023-06-22T07:15:29.369Z,7.6
2023-06-22T07:18:31.330Z,7.5
2023-06-22T07:21:33.303Z,7.2
2023-06-22T07:24:35.251Z,7.6
2023-06-22T07:27:37.231Z,7.7
2023-06-22T07:30:39.201Z,7.8
2023-06-22T07:33:41.197Z,7.5
2023-06-22T07:36:43.130Z,7.4
2023-06-22T07:39:45.183Z,7.7
2023-06-22T07:42:47.356Z,6.9
2023-06-22T07:45:49.371Z,7.6
2023-06-22T07:48:51.708Z,8.1
2023-06-22T07:51:53.537Z,7.4
2023-06-22T07:54:55.487Z,6.9
2023-06-22T07:57:57.525Z,7.2
2023-06-22T08:00:59.469Z,7.6
2023-06-22T08:04:01.433Z,6.7
2023-06-22T08:07:03.380Z,7.2
2023-06-22T08:10:05.367Z,7.6
2023-06-22T08:13:07.333Z,8.2
2023-06-22T08:16:09.482Z,6.6
2023-06-22T08:19:11.319Z,7.7
2023-06-22T08:22:13.304Z,6.9
2023-06-22T08:25:15.259Z,6.5
2023-06-22T08:28:17.270Z,7.9
2023-06-22T08:31:19.256Z,7.5
2023-06-22T08:34:21.183Z,7.2
2023-06-22T08:37:23.174Z,7.7
2023-06-22T08:40:25.147Z,7
2023-06-22T08:43:27.173Z,7.1
2023-06-22T08:46:29.193Z,8.5
2023-06-22T08:49:31.209Z,8
2023-06-22T08:52:33.776Z,7.4
2023-06-22T08:55:35.172Z,7.1
2023-06-22T08:58:37.139Z,6.5
2023-06-22T09:01:39.127Z,6.6
2023-06-22T09:04:41.187Z,6.6
2023-06-22T09:07:43.040Z,7.3
2023-06-22T09:10:45.006Z,7.7
2023-06-22T09:13:46.998Z,6.3
2023-06-22T09:16:48.971Z,7.1
2023-06-22T09:19:50.986Z,6.7
2023-06-22T09:22:53.001Z,7.4
2023-06-22T09:25:55.000Z,7.3
2023-06-22T09:28:56.967Z,7.5
2023-06-22T09:31:58.940Z,7.4
2023-06-22T09:35:00.889Z,7.6
2023-06-22T09:38:02.901Z,6.6
2023-06-22T09:41:04.817Z,7.4
2023-06-22T09:44:06.850Z,6.3
2023-06-22T09:47:08.780Z,6.3
2023-06-22T09:50:10.726Z,7.1
2023-06-22T09:53:12.713Z,6.8
2023-06-22T09:56:14.660Z,7
2023-06-22T09:59:18.676Z,6.3
2023-06-22T10:02:18.700Z,6.5
2023-06-22T10:05:20.642Z,6.8
2023-06-22T10:08:22.562Z,6.2
2023-06-22T10:11:24.516Z,6.1
2023-06-22T10:14:26.473Z,5.6
2023-06-22T10:17:28.451Z,5.4
2023-06-22T10:20:30.386Z,5.9
2023-06-22T10:23:32.373Z,5.4
2023-06-22T10:26:34.336Z,5.9
2023-06-22T10:29:36.432Z,5.3
2023-06-22T10:32:38.455Z,5.6
2023-06-22T10:35:40.363Z,5.4
2023-06-22T10:38:42.339Z,6.2
2023-06-22T10:41:44.267Z,5.9
2023-06-22T10:44:46.248Z,5.2
2023-06-22T10:47:48.252Z,5.4
2023-06-22T10:50:50.207Z,5.5
2023-06-22T10:53:52.240Z,5.7
2023-06-22T10:56:54.152Z,5.7
2023-06-22T10:59:56.076Z,5
2023-06-22T11:02:58.144Z,5.1
2023-06-22T11:06:00.049Z,5.1
2023-06-22T11:09:11.925Z,4.9
2023-06-22T11:12:03.954Z,4.9
2023-06-22T11:15:05.963Z,5.2
2023-06-22T11:18:07.929Z,5.5
2023-06-22T11:21:09.860Z,5.1
2023-06-22T11:24:11.842Z,5.2
2023-06-22T11:27:13.787Z,5.5
2023-06-22T11:30:15.813Z,6.1
2023-06-22T11:33:17.757Z,5.2
2023-06-22T11:36:19.749Z,6.1
2023-06-22T11:39:26.025Z,5.7
2023-06-22T11:42:23.733Z,5.2
2023-06-22T11:45:25.688Z,5.6
2023-06-22T11:48:27.660Z,6.2
2023-06-22T11:51:29.600Z,5.9
2023-06-22T11:54:31.654Z,6.1
2023-06-22T11:57:33.537Z,5.3
2023-06-22T12:00:42.217Z,6.1
2023-06-22T12:03:37.480Z,5.9
2023-06-22T12:06:39.427Z,5.9
2023-06-22T12:09:41.511Z,5
2023-06-22T12:12:43.465Z,5.9
2023-06-22T12:15:45.436Z,5.4
2023-06-22T12:18:47.430Z,5.6
2023-06-22T12:21:49.699Z,6.3
2023-06-22T12:24:51.407Z,5.4
2023-06-22T12:27:53.344Z,5.3
2023-06-22T12:30:55.278Z,5.1
2023-06-22T12:33:57.277Z,6.2
2023-06-22T12:36:59.260Z,4.9
2023-06-22T12:40:01.324Z,6
2023-06-22T12:43:03.237Z,5.4
2023-06-22T12:46:05.233Z,5.9
2023-06-22T12:49:07.228Z,5.8
2023-06-22T12:52:09.254Z,5.6
2023-06-22T12:55:11.231Z,5.7
2023-06-22T12:58:13.198Z,5.7
2023-06-22T13:01:15.208Z,6.2
2023-06-22T13:04:17.128Z,6.2
2023-06-22T13:07:22.653Z,5.1
2023-06-22T13:10:21.157Z,6
2023-06-22T13:13:23.003Z,6.2
2023-06-22T13:16:25.006Z,6.2
2023-06-22T13:19:26.961Z,5.8
2023-06-22T13:22:28.914Z,6.5
2023-06-22T13:25:31.063Z,5.5
2023-06-22T13:28:32.858Z,5.8
2023-06-22T13:31:34.792Z,6.6
2023-06-22T13:34:36.749Z,5.8
2023-06-22T13:37:38.718Z,6.1
2023-06-22T13:40:40.688Z,5.7
2023-06-22T13:43:42.636Z,5.7
2023-06-22T13:46:44.822Z,5.9
2023-06-22T13:49:46.900Z,5.9
2023-06-22T13:52:48.616Z,6
2023-06-22T13:55:50.592Z,5.4
2023-06-22T13:58:52.541Z,5.7
2023-06-22T14:01:54.528Z,5.8
2023-06-22T14:04:56.829Z,5.2
2023-06-22T14:07:58.573Z,5.4
2023-06-22T14:11:00.524Z,5.8
2023-06-22T14:14:02.482Z,5.8
2023-06-22T14:17:04.464Z,5.8
2023-06-22T14:20:06.420Z,5.7
2023-06-22T14:23:08.383Z,5.6
2023-06-22T14:26:10.368Z,5.7
2023-06-22T14:29:12.313Z,5.2
2023-06-22T14:32:14.318Z,4.9
2023-06-22T14:35:16.288Z,4.8
2023-06-22T14:38:18.249Z,4.5
2023-06-22T14:41:20.295Z,4.3
2023-06-22T14:44:22.201Z,4.2
2023-06-22T14:47:27.249Z,4.3
2023-06-22T14:50:26.146Z,4.6
2023-06-22T14:53:28.088Z,4.5
2023-06-22T14:56:30.069Z,4.2
2023-06-22T14:59:32.053Z,4.3
2023-06-22T15:02:34.078Z,4.2
2023-06-22T15:05:36.015Z,4.3
2023-06-22T15:08:37.953Z,3.9
2023-06-22T15:11:39.937Z,4.1
2023-06-22T15:14:41.900Z,4
2023-06-22T15:17:43.872Z,3.9
2023-06-22T15:20:45.809Z,4
2023-06-22T15:23:47.800Z,4
2023-06-22T15:26:49.768Z,4.1
2023-06-22T15:29:51.726Z,3.7
2023-06-22T15:32:53.688Z,3.7
2023-06-22T15:35:55.671Z,4.2
2023-06-22T15:38:57.681Z,4.1
2023-06-22T15:41:59.649Z,3.9
2023-06-22T15:45:01.633Z,3.9
2023-06-22T15:48:03.602Z,4.2
2023-06-22T15:51:05.528Z,3.6
2023-06-22T15:54:07.483Z,4.1
2023-06-22T15:57:09.451Z,3.2
2023-06-22T16:00:11.449Z,3.3
2023-06-22T16:03:13.576Z,3.6
2023-06-22T16:06:15.448Z,3.5
2023-06-22T16:09:17.418Z,4.4
2023-06-22T16:12:19.369Z,4
2023-06-22T16:15:21.460Z,4.6
2023-06-22T16:18:23.439Z,4.6
2023-06-22T16:21:25.419Z,3.8
2023-06-22T16:24:27.391Z,3.7
2023-06-22T16:27:29.329Z,3.8
2023-06-22T16:30:31.529Z,3
2023-06-22T16:33:33.270Z,3.3
2023-06-22T16:36:35.244Z,4.5
2023-06-22T16:39:37.222Z,3.8
2023-06-22T16:42:39.198Z,3.3
2023-06-22T16:45:41.157Z,2.7
2023-06-22T16:48:43.124Z,2.7
2023-06-22T16:51:45.087Z,2.8
2023-06-22T16:54:59.627Z,2.9
2023-06-22T16:57:49.080Z,3
2023-06-22T17:00:52.941Z,3.5
2023-06-22T17:03:53.031Z,2.5
2023-06-22T17:06:54.964Z,3
2023-06-22T17:09:56.914Z,2.6
2023-06-22T17:12:58.896Z,2.7
2023-06-22T17:16:00.916Z,2.5
2023-06-22T17:19:02.849Z,2.6
2023-06-22T17:22:04.821Z,2.6
2023-06-22T17:25:06.775Z,2.7
2023-06-22T17:28:08.744Z,2.8
2023-06-22T17:31:10.727Z,2.8
2023-06-22T17:34:12.668Z,3.1
2023-06-22T17:37:14.635Z,3.1
2023-06-22T17:40:16.592Z,2.8
2023-06-22T17:43:18.580Z,2.8
2023-06-22T17:46:20.591Z,2.9
2023-06-22T17:49:22.552Z,2.5
2023-06-22T17:52:24.545Z,3.5
2023-06-22T17:55:26.520Z,3
2023-06-22T17:58:28.495Z,3
2023-06-22T18:01:30.432Z,3.6
2023-06-22T18:04:32.414Z,3.7
2023-06-22T18:07:34.397Z,3.8
2023-06-22T18:10:36.349Z,3.7
2023-06-22T18:13:38.382Z,3.4
2023-06-22T18:16:40.293Z,4
2023-06-22T18:19:42.350Z,4.1
2023-06-22T18:22:44.284Z,4.1
2023-06-22T18:25:46.256Z,4.5
2023-06-22T18:28:48.281Z,4
2023-06-22T18:31:50.209Z,4.5
2023-06-22T18:34:52.190Z,4.5
2023-06-22T18:37:54.163Z,4.4
2023-06-22T18:40:56.112Z,4.6
2023-06-22T18:43:58.063Z,3.5
2023-06-22T18:47:00.057Z,4.6
2023-06-22T18:50:01.992Z,3.9
2023-06-22T18:53:04.013Z,5.6
2023-06-22T18:56:05.960Z,5
2023-06-22T18:59:07.912Z,5
2023-06-22T19:02:09.948Z,5.5
2023-06-22T19:05:11.874Z,5.2
2023-06-22T19:08:13.833Z,4.8
2023-06-22T19:11:15.821Z,5.2
2023-06-22T19:14:17.790Z,5.3
2023-06-22T19:17:19.901Z,5.6
2023-06-22T19:20:21.763Z,5.6
2023-06-22T19:23:23.719Z,5.9
2023-06-22T19:26:25.685Z,5.3
2023-06-22T19:29:27.667Z,5.3
2023-06-22T19:32:29.625Z,5.9
2023-06-22T19:35:31.798Z,6.2
2023-06-22T19:38:33.543Z,5.5
2023-06-22T19:41:35.519Z,5.4
2023-06-22T19:44:37.495Z,5.5
2023-06-22T19:47:39.587Z,5.7
2023-06-22T19:50:41.458Z,5.1
2023-06-22T19:53:43.411Z,5.1
2023-06-22T19:56:45.349Z,4.9
2023-06-22T19:59:47.350Z,4.8
2023-06-22T20:02:49.392Z,5
2023-06-22T20:05:51.272Z,4.8
2023-06-22T20:08:53.242Z,6.3
2023-06-22T20:11:55.228Z,6.8
2023-06-22T20:14:57.189Z,5.8
2023-06-22T20:18:00.164Z,5.4
2023-06-22T20:21:01.121Z,4.4
2023-06-22T20:24:03.072Z,4.6
2023-06-22T20:27:05.070Z,4.6
2023-06-22T20:30:07.113Z,5.9
2023-06-22T20:33:09.500Z,4.6
2023-06-22T20:36:11.057Z,5
2023-06-22T20:39:13.065Z,4.2
2023-06-22T20:42:14.971Z,3.4
2023-06-22T20:45:16.958Z,3.4
2023-06-22T20:48:25.932Z,2.8
2023-06-22T20:51:20.866Z,2.2
2023-06-22T20:54:22.835Z,1.8
2023-06-22T20:57:24.798Z,1.6
2023-06-22T21:00:26.881Z,1.2
2023-06-22T21:03:29.060Z,1.1
2023-06-22T21:06:30.756Z,1.2
2023-06-22T21:09:42.462Z,1
2023-06-22T21:12:34.680Z,0.9
2023-06-22T21:15:36.628Z,0.9
2023-06-22T21:18:38.595Z,0.8
2023-06-22T21:21:40.589Z,0.8
2023-06-22T21:24:44.343Z,0.7
2023-06-22T21:27:44.496Z,0.7
2023-06-22T21:30:46.465Z,0.7
2023-06-22T21:33:48.418Z,0.7
2023-06-22T21:36:50.421Z,0.6
2023-06-22T21:39:52.362Z,0.6
2023-06-22T21:42:54.479Z,0.8
2023-06-22T21:45:56.315Z,0.7
2023-06-22T21:48:58.328Z,0.7
2023-06-22T21:52:00.245Z,0.6
2023-06-22T21:55:02.230Z,0.5
2023-06-22T21:58:04.199Z,0.4
2023-06-22T22:01:06.209Z,0.5
2023-06-22T22:04:08.154Z,0.6
2023-06-22T22:07:10.093Z,0.4
2023-06-22T22:10:12.085Z,0.4
2023-06-22T22:13:14.026Z,0.3
2023-06-22T22:16:16.005Z,0.3
2023-06-22T22:19:17.941Z,0.4
2023-06-22T22:22:19.921Z,0.3
2023-06-22T22:25:21.891Z,0.4
2023-06-22T22:28:23.836Z,0.5
2023-06-22T22:31:25.938Z,0.4
2023-06-22T22:34:27.769Z,0.6
2023-06-22T22:37:29.719Z,0.4
2023-06-22T22:40:31.731Z,0.6
2023-06-22T22:43:33.684Z,0.7
2023-06-22T22:46:35.728Z,0.9
2023-06-22T22:49:37.652Z,0.8
2023-06-22T22:52:39.646Z,1.2
2023-06-22T22:55:41.636Z,1.3
2023-06-22T22:58:43.609Z,1.3
2023-06-22T23:01:45.580Z,1.3
2023-06-22T23:04:47.521Z,1.3
2023-06-22T23:07:49.505Z,1.6
2023-06-22T23:10:51.478Z,1.7
2023-06-22T23:13:53.415Z,1.8
2023-06-22T23:16:55.378Z,2
2023-06-22T23:19:57.357Z,2.2
2023-06-22T23:22:59.358Z,2.3
2023-06-22T23:26:01.292Z,2.3
2023-06-22T23:29:03.287Z,2.2
2023-06-22T23:32:05.380Z,2.3
2023-06-22T23:35:07.220Z,2.3
2023-06-22T23:38:09.194Z,2.2
2023-06-22T23:41:11.143Z,2.4
2023-06-22T23:44:13.094Z,2.6
2023-06-22T23:47:15.074Z,2.9
2023-06-22T23:50:17.120Z,2.8
2023-06-22T23:53:19.129Z,3.1
2023-06-22T23:56:21.122Z,2.9
2023-06-22T23:59:23.066Z,3
